sensor_id;sensor_type;location;lat;lon;timestamp;pressure;altitude;pressure_sealevel;temperature;humidity
69535;BME280;56754;51.568;5.048;2023-04-19T00:00:39;102617.69;;;13.24;66.11
69535;BME280;56754;51.568;5.048;2023-04-19T00:03:05;102619.84;;;13.21;65.44
69535;BME280;56754;51.568;5.048;2023-04-19T00:05:31;102611.78;;;13.21;65.40
69535;BME280;56754;51.568;5.048;2023-04-19T00:07:56;102614.75;;;13.20;65.85
69535;BME280;56754;51.568;5.048;2023-04-19T00:10:21;102613.97;;;13.19;65.54
69535;BME280;56754;51.568;5.048;2023-04-19T00:12:47;102611.28;;;13.19;65.83
69535;BME280;56754;51.568;5.048;2023-04-19T00:15:12;102606.19;;;13.18;65.99
69535;BME280;56754;51.568;5.048;2023-04-19T00:17:38;102604.59;;;13.17;65.55
69535;BME280;56754;51.568;5.048;2023-04-19T00:20:03;102606.47;;;13.16;65.30
69535;BME280;56754;51.568;5.048;2023-04-19T00:22:29;102610.22;;;13.15;65.65
69535;BME280;56754;51.568;5.048;2023-04-19T00:24:54;102606.75;;;13.15;65.41
69535;BME280;56754;51.568;5.048;2023-04-19T00:27:20;102609.44;;;13.15;65.40
69535;BME280;56754;51.568;5.048;2023-04-19T00:29:45;102597.38;;;13.12;65.99
69535;BME280;56754;51.568;5.048;2023-04-19T00:32:10;102601.69;;;13.13;66.15
69535;BME280;56754;51.568;5.048;2023-04-19T00:34:36;102605.16;;;13.14;65.69
69535;BME280;56754;51.568;5.048;2023-04-19T00:37:01;102594.41;;;13.14;65.90
69535;BME280;56754;51.568;5.048;2023-04-19T00:39:26;102597.09;;;13.14;65.25
69535;BME280;56754;51.568;5.048;2023-04-19T00:41:52;102597.09;;;13.14;66.43
69535;BME280;56754;51.568;5.048;2023-04-19T00:44:17;102597.09;;;13.14;65.50
69535;BME280;56754;51.568;5.048;2023-04-19T00:46:43;102602.97;;;13.16;65.50
69535;BME280;56754;51.568;5.048;2023-04-19T00:49:08;102598.44;;;13.16;65.65
69535;BME280;56754;51.568;5.048;2023-04-19T00:51:34;102588.19;;;13.18;65.38
69535;BME280;56754;51.568;5.048;2023-04-19T00:54:01;102594.34;;;13.19;65.32
69535;BME280;56754;51.568;5.048;2023-04-19T00:56:27;102593.28;;;13.20;65.40
69535;BME280;56754;51.568;5.048;2023-04-19T00:58:53;102594.06;;;13.20;65.54
69535;BME280;56754;51.568;5.048;2023-04-19T01:01:19;102589.50;;;13.21;65.39
69535;BME280;56754;51.568;5.048;2023-04-19T01:03:45;102583.03;;;13.22;65.24
69535;BME280;56754;51.568;5.048;2023-04-19T01:06:10;102592.97;;;13.21;65.20
69535;BME280;56754;51.568;5.048;2023-04-19T01:08:36;102593.50;;;13.24;65.62
69535;BME280;56754;51.568;5.048;2023-04-19T01:11:01;102588.94;;;13.24;65.29
69535;BME280;56754;51.568;5.048;2023-04-19T01:13:26;102585.22;;;13.25;65.04
69535;BME280;56754;51.568;5.048;2023-04-19T01:15:53;102585.72;;;13.27;65.17
69535;BME280;56754;51.568;5.048;2023-04-19T01:18:18;102596.44;;;13.27;65.35
69535;BME280;56754;51.568;5.048;2023-04-19T01:20:43;102580.34;;;13.27;65.11
69535;BME280;56754;51.568;5.048;2023-04-19T01:23:09;102579.28;;;13.28;65.35
69535;BME280;56754;51.568;5.048;2023-04-19T01:25:34;102590.50;;;13.30;65.03
69535;BME280;56754;51.568;5.048;2023-04-19T01:28:00;102582.47;;;13.30;65.42
69535;BME280;56754;51.568;5.048;2023-04-19T01:30:25;102589.44;;;13.31;65.10
69535;BME280;56754;51.568;5.048;2023-04-19T01:32:50;102587.56;;;13.32;65.12
69535;BME280;56754;51.568;5.048;2023-04-19T01:35:16;102585.38;;;13.34;65.71
69535;BME280;56754;51.568;5.048;2023-04-19T01:37:41;102576.50;;;13.33;64.81
69535;BME280;56754;51.568;5.048;2023-04-19T01:40:07;102585.38;;;13.34;65.25
69535;BME280;56754;51.568;5.048;2023-04-19T01:42:32;102583.50;;;13.34;65.84
69535;BME280;56754;51.568;5.048;2023-04-19T01:44:57;102585.88;;;13.36;65.17
69535;BME280;56754;51.568;5.048;2023-04-19T01:47:23;102585.88;;;13.36;65.40
69535;BME280;56754;51.568;5.048;2023-04-19T01:49:48;102582.13;;;13.37;65.71
69535;BME280;56754;51.568;5.048;2023-04-19T01:52:13;102577.56;;;13.37;65.88
69535;BME280;56754;51.568;5.048;2023-04-19T01:54:38;102586.69;;;13.36;65.49
69535;BME280;56754;51.568;5.048;2023-04-19T01:57:04;102583.72;;;13.38;65.99
69535;BME280;56754;51.568;5.048;2023-04-19T01:59:29;102579.94;;;13.39;65.25
69535;BME280;56754;51.568;5.048;2023-04-19T02:01:54;102582.63;;;13.39;65.09
69535;BME280;56754;51.568;5.048;2023-04-19T02:04:20;102581.56;;;13.40;64.94
69535;BME280;56754;51.568;5.048;2023-04-19T02:06:45;102579.69;;;13.40;64.91
69535;BME280;56754;51.568;5.048;2023-04-19T02:09:10;102575.09;;;13.41;64.76
69535;BME280;56754;51.568;5.048;2023-04-19T02:11:36;102575.91;;;13.41;65.59
69535;BME280;56754;51.568;5.048;2023-04-19T02:14:01;102574.81;;;13.42;64.61
69535;BME280;56754;51.568;5.048;2023-04-19T02:16:26;102568.63;;;13.42;65.06
69535;BME280;56754;51.568;5.048;2023-04-19T02:18:52;102563.00;;;13.43;64.82
69535;BME280;56754;51.568;5.048;2023-04-19T02:21:17;102564.88;;;13.43;64.66
69535;BME280;56754;51.568;5.048;2023-04-19T02:23:42;102557.63;;;13.43;65.12
69535;BME280;56754;51.568;5.048;2023-04-19T02:26:08;102571.84;;;13.44;64.87
69535;BME280;56754;51.568;5.048;2023-04-19T02:28:33;102563.00;;;13.43;64.66
69535;BME280;56754;51.568;5.048;2023-04-19T02:31:03;102568.38;;;13.43;64.73
69535;BME280;56754;51.568;5.048;2023-04-19T02:33:28;102568.06;;;13.45;64.56
69535;BME280;56754;51.568;5.048;2023-04-19T02:35:54;102561.91;;;13.45;64.42
69535;BME280;56754;51.568;5.048;2023-04-19T02:38:19;102568.06;;;13.45;64.74
69535;BME280;56754;51.568;5.048;2023-04-19T02:40:44;102568.84;;;13.46;64.61
69535;BME280;56754;51.568;5.048;2023-04-19T02:43:10;102563.47;;;13.46;64.71
69535;BME280;56754;51.568;5.048;2023-04-19T02:45:35;102565.09;;;13.47;64.61
69535;BME280;56754;51.568;5.048;2023-04-19T02:48:01;102568.84;;;13.46;64.60
69535;BME280;56754;51.568;5.048;2023-04-19T02:50:26;102560.53;;;13.47;64.51
69535;BME280;56754;51.568;5.048;2023-04-19T02:52:51;102563.22;;;13.47;64.50
69535;BME280;56754;51.568;5.048;2023-04-19T02:55:17;102565.91;;;13.47;65.12
69535;BME280;56754;51.568;5.048;2023-04-19T02:57:42;102565.09;;;13.47;64.87
69535;BME280;56754;51.568;5.048;2023-04-19T03:00:08;102560.53;;;13.47;64.39
69535;BME280;56754;51.568;5.048;2023-04-19T03:02:33;102564.00;;;13.48;64.84
69535;BME280;56754;51.568;5.048;2023-04-19T03:04:58;102568.28;;;13.49;64.68
69535;BME280;56754;51.568;5.048;2023-04-19T03:07:24;102570.97;;;13.49;64.57
69535;BME280;56754;51.568;5.048;2023-04-19T03:09:49;102569.91;;;13.50;65.07
69535;BME280;56754;51.568;5.048;2023-04-19T03:12:14;102570.97;;;13.49;64.54
69535;BME280;56754;51.568;5.048;2023-04-19T03:14:40;102570.97;;;13.49;65.00
69535;BME280;56754;51.568;5.048;2023-04-19T03:17:05;102573.66;;;13.49;64.63
69535;BME280;56754;51.568;5.048;2023-04-19T03:19:30;102568.00;;;13.50;64.79
69535;BME280;56754;51.568;5.048;2023-04-19T03:21:55;102557.28;;;13.50;65.26
69535;BME280;56754;51.568;5.048;2023-04-19T03:24:28;102565.31;;;13.50;64.98
69535;BME280;56754;51.568;5.048;2023-04-19T03:26:54;102569.91;;;13.50;65.26
69535;BME280;56754;51.568;5.048;2023-04-19T03:29:19;102572.28;;;13.51;65.48
69535;BME280;56754;51.568;5.048;2023-04-19T03:31:44;102560.75;;;13.51;65.42
69535;BME280;56754;51.568;5.048;2023-04-19T03:34:10;102564.53;;;13.50;65.42
69535;BME280;56754;51.568;5.048;2023-04-19T03:36:35;102560.75;;;13.51;64.98
69535;BME280;56754;51.568;5.048;2023-04-19T03:39:02;102559.97;;;13.50;64.98
69535;BME280;56754;51.568;5.048;2023-04-19T03:41:27;102552.69;;;13.51;65.94
69535;BME280;56754;51.568;5.048;2023-04-19T03:43:52;102555.38;;;13.51;65.40
69535;BME280;56754;51.568;5.048;2023-04-19T03:46:18;102554.84;;;13.49;65.12
69535;BME280;56754;51.568;5.048;2023-04-19T03:48:43;102561.84;;;13.50;65.75
69535;BME280;56754;51.568;5.048;2023-04-19T03:51:08;102546.78;;;13.49;65.11
69535;BME280;56754;51.568;5.048;2023-04-19T03:53:35;102552.16;;;13.49;65.10
69535;BME280;56754;51.568;5.048;2023-04-19T03:56:00;102558.38;;;13.49;65.90
69535;BME280;56754;51.568;5.048;2023-04-19T03:58:25;102559.44;;;13.48;65.05
69535;BME280;56754;51.568;5.048;2023-04-19T04:00:51;102555.94;;;13.48;65.11
69535;BME280;56754;51.568;5.048;2023-04-19T04:03:16;102549.00;;;13.47;65.39
69535;BME280;56754;51.568;5.048;2023-04-19T04:05:41;102554.38;;;13.47;65.39
69535;BME280;56754;51.568;5.048;2023-04-19T04:08:07;102555.44;;;13.46;65.10
69535;BME280;56754;51.568;5.048;2023-04-19T04:10:32;102557.31;;;13.45;65.15
69535;BME280;56754;51.568;5.048;2023-04-19T04:12:57;102557.31;;;13.45;65.41
69535;BME280;56754;51.568;5.048;2023-04-19T04:15:22;102556.53;;;13.45;65.08
69535;BME280;56754;51.568;5.048;2023-04-19T04:17:48;102556.53;;;13.45;65.17
69535;BME280;56754;51.568;5.048;2023-04-19T04:20:14;102554.94;;;13.43;65.07
69535;BME280;56754;51.568;5.048;2023-04-19T04:22:41;102554.94;;;13.43;65.02
69535;BME280;56754;51.568;5.048;2023-04-19T04:25:07;102556.00;;;13.42;65.31
69535;BME280;56754;51.568;5.048;2023-04-19T04:27:32;102547.94;;;13.42;64.94
69535;BME280;56754;51.568;5.048;2023-04-19T04:29:57;102563.25;;;13.42;65.16
69535;BME280;56754;51.568;5.048;2023-04-19T04:32:23;102559.78;;;13.41;65.20
69535;BME280;56754;51.568;5.048;2023-04-19T04:34:48;102565.94;;;13.42;65.06
69535;BME280;56754;51.568;5.048;2023-04-19T04:37:13;102561.94;;;13.39;64.81
69535;BME280;56754;51.568;5.048;2023-04-19T04:39:39;102563.56;;;13.40;65.79
69535;BME280;56754;51.568;5.048;2023-04-19T04:42:05;102564.34;;;13.41;65.05
69535;BME280;56754;51.568;5.048;2023-04-19T04:44:30;102570.00;;;13.39;64.81
69535;BME280;56754;51.568;5.048;2023-04-19T04:46:56;102564.63;;;13.39;65.08
69535;BME280;56754;51.568;5.048;2023-04-19T04:49:21;102563.84;;;13.39;65.07
69535;BME280;56754;51.568;5.048;2023-04-19T04:51:46;102571.91;;;13.39;64.90
69535;BME280;56754;51.568;5.048;2023-04-19T04:54:12;102569.22;;;13.39;65.11
69535;BME280;56754;51.568;5.048;2023-04-19T04:56:37;102571.91;;;13.39;65.61
69535;BME280;56754;51.568;5.048;2023-04-19T04:59:02;102586.13;;;13.39;65.55
69535;BME280;56754;51.568;5.048;2023-04-19T05:01:27;102580.75;;;13.39;65.54
69535;BME280;56754;51.568;5.048;2023-04-19T05:03:54;102586.94;;;13.40;65.60
69535;BME280;56754;51.568;5.048;2023-04-19T05:06:19;102584.53;;;13.38;64.94
69535;BME280;56754;51.568;5.048;2023-04-19T05:08:44;102586.94;;;13.40;65.03
69535;BME280;56754;51.568;5.048;2023-04-19T05:11:09;102587.22;;;13.38;65.14
69535;BME280;56754;51.568;5.048;2023-04-19T05:13:35;102585.06;;;13.40;65.16
69535;BME280;56754;51.568;5.048;2023-04-19T05:16:00;102586.13;;;13.39;65.11
69535;BME280;56754;51.568;5.048;2023-04-19T05:18:25;102583.44;;;13.39;65.80
69535;BME280;56754;51.568;5.048;2023-04-19T05:20:51;102581.56;;;13.40;65.68
69535;BME280;56754;51.568;5.048;2023-04-19T05:23:16;102588.53;;;13.41;65.61
69535;BME280;56754;51.568;5.048;2023-04-19T05:25:41;102589.63;;;13.40;65.14
69535;BME280;56754;51.568;5.048;2023-04-19T05:28:07;102583.44;;;13.39;65.58
69535;BME280;56754;51.568;5.048;2023-04-19T05:30:32;102591.50;;;13.39;65.39
69535;BME280;56754;51.568;5.048;2023-04-19T05:32:57;102596.06;;;13.39;65.68
69535;BME280;56754;51.568;5.048;2023-04-19T05:35:23;102589.09;;;13.38;65.43
69535;BME280;56754;51.568;5.048;2023-04-19T05:37:48;102594.47;;;13.38;65.59
69535;BME280;56754;51.568;5.048;2023-04-19T05:40:13;102594.47;;;13.38;65.44
69535;BME280;56754;51.568;5.048;2023-04-19T05:42:39;102597.16;;;13.38;65.90
69535;BME280;56754;51.568;5.048;2023-04-19T05:45:05;102588.31;;;13.37;65.76
69535;BME280;56754;51.568;5.048;2023-04-19T05:47:30;102591.78;;;13.38;65.86
69535;BME280;56754;51.568;5.048;2023-04-19T05:49:55;102592.88;;;13.37;65.51
69535;BME280;56754;51.568;5.048;2023-04-19T05:52:21;102587.50;;;13.37;65.54
69535;BME280;56754;51.568;5.048;2023-04-19T05:54:46;102588.31;;;13.37;65.03
69535;BME280;56754;51.568;5.048;2023-04-19T05:57:11;102591.00;;;13.37;66.09
69535;BME280;56754;51.568;5.048;2023-04-19T05:59:36;102593.94;;;13.36;65.08
69535;BME280;56754;51.568;5.048;2023-04-19T06:02:02;102596.38;;;13.37;65.05
69535;BME280;56754;51.568;5.048;2023-04-19T06:04:27;102589.09;;;13.38;65.73
69535;BME280;56754;51.568;5.048;2023-04-19T06:06:52;102596.06;;;13.39;65.60
69535;BME280;56754;51.568;5.048;2023-04-19T06:09:18;102598.47;;;13.40;65.70
69535;BME280;56754;51.568;5.048;2023-04-19T06:11:44;102600.06;;;13.41;65.52
69535;BME280;56754;51.568;5.048;2023-04-19T06:14:10;102603.56;;;13.42;65.53
69535;BME280;56754;51.568;5.048;2023-04-19T06:16:35;102599.50;;;13.45;65.73
69535;BME280;56754;51.568;5.048;2023-04-19T06:19:01;102604.88;;;13.45;65.66
69535;BME280;56754;51.568;5.048;2023-04-19T06:21:29;102603.78;;;13.46;66.15
69535;BME280;56754;51.568;5.048;2023-04-19T06:23:54;102606.19;;;13.47;65.95
69535;BME280;56754;51.568;5.048;2023-04-19T06:26:19;102606.72;;;13.49;65.46
69535;BME280;56754;51.568;5.048;2023-04-19T06:28:45;102604.81;;;13.50;65.12
69535;BME280;56754;51.568;5.048;2023-04-19T06:31:10;102606.94;;;13.53;65.31
69535;BME280;56754;51.568;5.048;2023-04-19T06:33:35;102607.47;;;13.55;65.29
69535;BME280;56754;51.568;5.048;2023-04-19T06:36:01;102610.66;;;13.57;65.37
69535;BME280;56754;51.568;5.048;2023-04-19T06:38:26;102603.38;;;13.57;65.51
69535;BME280;56754;51.568;5.048;2023-04-19T06:40:51;102611.97;;;13.59;65.15
69535;BME280;56754;51.568;5.048;2023-04-19T06:43:16;102605.22;;;13.62;65.11
69535;BME280;56754;51.568;5.048;2023-04-19T06:45:42;102597.69;;;13.64;64.44
69535;BME280;56754;51.568;5.048;2023-04-19T06:48:07;102610.53;;;13.67;64.34
69535;BME280;56754;51.568;5.048;2023-04-19T06:50:32;102601.91;;;13.70;64.74
69535;BME280;56754;51.568;5.048;2023-04-19T06:52:58;102599.72;;;13.72;65.35
69535;BME280;56754;51.568;5.048;2023-04-19T06:55:23;102601.34;;;13.73;66.08
69535;BME280;56754;51.568;5.048;2023-04-19T06:57:48;102605.63;;;13.74;66.18
69535;BME280;56754;51.568;5.048;2023-04-19T07:00:14;102605.34;;;13.76;66.90
69535;BME280;56754;51.568;5.048;2023-04-19T07:02:39;102595.91;;;13.78;67.02
69535;BME280;56754;51.568;5.048;2023-04-19T07:05:05;102598.59;;;13.78;67.19
69535;BME280;56754;51.568;5.048;2023-04-19T07:07:30;102596.97;;;13.77;67.10
69535;BME280;56754;51.568;5.048;2023-04-19T07:09:56;102597.50;;;13.79;67.67
69535;BME280;56754;51.568;5.048;2023-04-19T07:12:21;102596.13;;;13.82;67.56
69535;BME280;56754;51.568;5.048;2023-04-19T07:14:46;102600.41;;;13.83;66.57
69535;BME280;56754;51.568;5.048;2023-04-19T07:17:12;102594.25;;;13.82;66.28
69535;BME280;56754;51.568;5.048;2023-04-19T07:19:37;102596.94;;;13.82;66.09
69535;BME280;56754;51.568;5.048;2023-04-19T07:22:02;102602.00;;;13.84;65.82
69535;BME280;56754;51.568;5.048;2023-04-19T07:24:27;102603.63;;;13.85;65.25
69535;BME280;56754;51.568;5.048;2023-04-19T07:26:53;102596.34;;;13.85;65.43
69535;BME280;56754;51.568;5.048;2023-04-19T07:29:18;102595.78;;;13.88;65.42
69535;BME280;56754;51.568;5.048;2023-04-19T07:31:43;102592.00;;;13.89;65.50
69535;BME280;56754;51.568;5.048;2023-04-19T07:34:09;102597.09;;;13.91;65.99
69535;BME280;56754;51.568;5.048;2023-04-19T07:36:34;102600.31;;;13.93;65.08
69535;BME280;56754;51.568;5.048;2023-04-19T07:38:59;102600.78;;;13.95;64.81
69535;BME280;56754;51.568;5.048;2023-04-19T07:41:24;102587.88;;;13.97;65.44
69535;BME280;56754;51.568;5.048;2023-04-19T07:43:50;102583.00;;;13.99;65.67
69535;BME280;56754;51.568;5.048;2023-04-19T07:46:15;102594.25;;;14.01;65.97
69535;BME280;56754;51.568;5.048;2023-04-19T07:48:41;102587.81;;;14.02;65.53
69535;BME280;56754;51.568;5.048;2023-04-19T07:51:14;102589.09;;;14.05;65.79
69535;BME280;56754;51.568;5.048;2023-04-19T07:53:40;102581.03;;;14.05;65.39
69535;BME280;56754;51.568;5.048;2023-04-19T07:56:09;102583.44;;;14.06;65.13
69535;BME280;56754;51.568;5.048;2023-04-19T07:58:36;102590.41;;;14.07;64.15
69535;BME280;56754;51.568;5.048;2023-04-19T08:01:02;102582.88;;;14.09;64.99
69535;BME280;56754;51.568;5.048;2023-04-19T08:03:27;102582.59;;;14.11;65.08
69535;BME280;56754;51.568;5.048;2023-04-19T08:05:52;102583.88;;;14.14;65.73
69535;BME280;56754;51.568;5.048;2023-04-19T08:08:18;102589.75;;;14.16;64.90
69535;BME280;56754;51.568;5.048;2023-04-19T08:10:43;102577.13;;;14.16;64.90
69535;BME280;56754;51.568;5.048;2023-04-19T08:13:08;102591.88;;;14.19;63.85
69535;BME280;56754;51.568;5.048;2023-04-19T08:15:34;102581.91;;;14.19;64.05
69535;BME280;56754;51.568;5.048;2023-04-19T08:17:59;102578.94;;;14.21;64.58
69535;BME280;56754;51.568;5.048;2023-04-19T08:20:25;102579.47;;;14.23;63.73
69535;BME280;56754;51.568;5.048;2023-04-19T08:22:50;102589.13;;;14.24;64.63
69535;BME280;56754;51.568;5.048;2023-04-19T08:25:15;102580.75;;;14.25;64.96
69535;BME280;56754;51.568;5.048;2023-04-19T08:27:41;102579.69;;;14.26;64.01
69535;BME280;56754;51.568;5.048;2023-04-19T08:30:06;102585.53;;;14.28;64.64
69535;BME280;56754;51.568;5.048;2023-04-19T08:32:32;102570.22;;;14.29;63.67
69535;BME280;56754;51.568;5.048;2023-04-19T08:34:57;102580.69;;;14.30;64.31
69535;BME280;56754;51.568;5.048;2023-04-19T08:37:23;102575.03;;;14.32;64.25
69535;BME280;56754;51.568;5.048;2023-04-19T08:39:48;102573.13;;;14.32;63.41
69535;BME280;56754;51.568;5.048;2023-04-19T08:42:13;102572.03;;;14.33;64.45
69535;BME280;56754;51.568;5.048;2023-04-19T08:44:39;102568.28;;;14.34;64.50
69535;BME280;56754;51.568;5.048;2023-04-19T08:47:06;102580.31;;;14.37;65.15
69535;BME280;56754;51.568;5.048;2023-04-19T08:49:34;102569.53;;;14.37;63.71
69535;BME280;56754;51.568;5.048;2023-04-19T08:52:01;102563.09;;;14.38;63.87
69535;BME280;56754;51.568;5.048;2023-04-19T08:54:28;102564.69;;;14.39;63.61
69535;BME280;56754;51.568;5.048;2023-04-19T08:56:53;102554.72;;;14.40;63.39
69535;BME280;56754;51.568;5.048;2023-04-19T08:59:19;102550.13;;;14.40;63.33
69535;BME280;56754;51.568;5.048;2023-04-19T09:01:44;102567.88;;;14.41;62.73
69535;BME280;56754;51.568;5.048;2023-04-19T09:04:09;102551.44;;;14.43;63.58
69535;BME280;56754;51.568;5.048;2023-04-19T09:06:38;102550.38;;;14.44;63.88
69535;BME280;56754;51.568;5.048;2023-04-19T09:09:19;102554.34;;;14.46;64.07
69535;BME280;56754;51.568;5.048;2023-04-19T09:11:44;102564.03;;;14.47;62.23
69535;BME280;56754;51.568;5.048;2023-04-19T09:14:12;102555.97;;;14.47;62.92
69535;BME280;56754;51.568;5.048;2023-04-19T09:16:38;102552.97;;;14.49;63.49
69535;BME280;56754;51.568;5.048;2023-04-19T09:19:03;102556.16;;;14.51;63.52
69535;BME280;56754;51.568;5.048;2023-04-19T09:21:30;102556.16;;;14.51;63.81
69535;BME280;56754;51.568;5.048;2023-04-19T09:23:56;102557.00;;;14.51;64.06
69535;BME280;56754;51.568;5.048;2023-04-19T09:26:22;102544.34;;;14.52;63.90
69535;BME280;56754;51.568;5.048;2023-04-19T09:28:58;102551.31;;;14.53;64.44
69535;BME280;56754;51.568;5.048;2023-04-19T09:31:24;102540.56;;;14.53;63.52
69535;BME280;56754;51.568;5.048;2023-04-19T09:33:51;102548.34;;;14.54;64.41
69535;BME280;56754;51.568;5.048;2023-04-19T09:36:30;102552.91;;;14.54;64.55
69535;BME280;56754;51.568;5.048;2023-04-19T09:38:57;102557.19;;;14.55;64.38
69535;BME280;56754;51.568;5.048;2023-04-19T09:41:23;102557.19;;;14.55;64.27
69535;BME280;56754;51.568;5.048;2023-04-19T09:43:48;102550.75;;;14.56;64.38
69535;BME280;56754;51.568;5.048;2023-04-19T09:46:33;102553.44;;;14.56;63.62
69535;BME280;56754;51.568;5.048;2023-04-19T09:51:40;102544.25;;;14.57;64.33
69535;BME280;56754;51.568;5.048;2023-04-19T09:54:05;102542.34;;;14.57;64.40
69535;BME280;56754;51.568;5.048;2023-04-19T09:56:31;102541.28;;;14.59;64.22
69535;BME280;56754;51.568;5.048;2023-04-19T09:58:56;102539.66;;;14.57;63.33
69535;BME280;56754;51.568;5.048;2023-04-19T10:01:22;102535.91;;;14.59;64.69
69535;BME280;56754;51.568;5.048;2023-04-19T10:03:49;102535.91;;;14.59;63.68
69535;BME280;56754;51.568;5.048;2023-04-19T10:06:18;102529.69;;;14.58;64.19
69535;BME280;56754;51.568;5.048;2023-04-19T10:08:45;102534.00;;;14.59;63.59
69535;BME280;56754;51.568;5.048;2023-04-19T10:11:11;102530.22;;;14.60;63.75
69535;BME280;56754;51.568;5.048;2023-04-19T10:13:37;102527.53;;;14.60;63.51
69535;BME280;56754;51.568;5.048;2023-04-19T10:16:03;102532.91;;;14.60;63.13
69535;BME280;56754;51.568;5.048;2023-04-19T10:18:29;102541.78;;;14.61;63.45
69535;BME280;56754;51.568;5.048;2023-04-19T10:21:00;102531.00;;;14.61;63.84
69535;BME280;56754;51.568;5.048;2023-04-19T10:23:28;102526.13;;;14.63;64.69
69535;BME280;56754;51.568;5.048;2023-04-19T10:25:55;102531.81;;;14.61;64.18
69535;BME280;56754;51.568;5.048;2023-04-19T10:28:21;102534.53;;;14.61;63.72
69535;BME280;56754;51.568;5.048;2023-04-19T10:30:54;102534.22;;;14.63;64.25
69535;BME280;56754;51.568;5.048;2023-04-19T10:33:25;102535.31;;;14.62;64.70
69535;BME280;56754;51.568;5.048;2023-04-19T10:35:55;102535.31;;;14.62;63.22
69535;BME280;56754;51.568;5.048;2023-04-19T10:38:35;102526.44;;;14.61;63.70
69535;BME280;56754;51.568;5.048;2023-04-19T10:41:00;102528.03;;;14.62;63.20
69535;BME280;56754;51.568;5.048;2023-04-19T10:43:33;102526.44;;;14.61;63.46
69535;BME280;56754;51.568;5.048;2023-04-19T10:46:12;102527.25;;;14.62;63.44
69535;BME280;56754;51.568;5.048;2023-04-19T10:49:00;102534.53;;;14.61;63.76
69535;BME280;56754;51.568;5.048;2023-04-19T10:51:34;102523.75;;;14.61;64.62
69535;BME280;56754;51.568;5.048;2023-04-19T10:54:07;102522.13;;;14.60;63.55
69535;BME280;56754;51.568;5.048;2023-04-19T11:02:03;102514.38;;;14.59;63.65
69535;BME280;56754;51.568;5.048;2023-04-19T11:09:23;102508.47;;;14.56;62.89
69535;BME280;56754;51.568;5.048;2023-04-19T11:11:49;102502.31;;;14.56;63.47
69535;BME280;56754;51.568;5.048;2023-04-19T11:14:15;102509.28;;;14.57;63.14
69535;BME280;56754;51.568;5.048;2023-04-19T11:16:41;102501.50;;;14.55;62.90
69535;BME280;56754;51.568;5.048;2023-04-19T11:19:06;102497.22;;;14.54;62.79
69535;BME280;56754;51.568;5.048;2023-04-19T11:21:32;102495.63;;;14.53;62.49
69535;BME280;56754;51.568;5.048;2023-04-19T11:24:07;102501.00;;;14.53;62.90
69535;BME280;56754;51.568;5.048;2023-04-19T11:26:32;102520.63;;;14.54;62.29
69535;BME280;56754;51.568;5.048;2023-04-19T11:28:59;102503.69;;;14.53;63.01
69535;BME280;56754;51.568;5.048;2023-04-19T11:31:24;102500.69;;;14.55;62.46
69535;BME280;56754;51.568;5.048;2023-04-19T11:33:50;102511.44;;;14.55;61.99
69535;BME280;56754;51.568;5.048;2023-04-19T11:36:15;102503.38;;;14.55;61.78
69535;BME280;56754;51.568;5.048;2023-04-19T11:38:40;102486.44;;;14.54;62.50
69535;BME280;56754;51.568;5.048;2023-04-19T11:41:06;102484.53;;;14.55;61.62
69535;BME280;56754;51.568;5.048;2023-04-19T11:43:35;102491.03;;;14.54;61.50
69535;BME280;56754;51.568;5.048;2023-04-19T11:46:05;102482.69;;;14.55;61.33
69535;BME280;56754;51.568;5.048;2023-04-19T11:48:30;102470.31;;;14.54;61.54
69535;BME280;56754;51.568;5.048;2023-04-19T11:51:00;102482.69;;;14.55;61.48
69535;BME280;56754;51.568;5.048;2023-04-19T11:53:27;102485.06;;;14.57;60.96
69535;BME280;56754;51.568;5.048;2023-04-19T11:55:54;102475.09;;;14.57;61.70
69535;BME280;56754;51.568;5.048;2023-04-19T11:58:28;102480.47;;;14.57;60.94
69535;BME280;56754;51.568;5.048;2023-04-19T12:01:01;102467.81;;;14.58;61.17
69535;BME280;56754;51.568;5.048;2023-04-19T12:03:27;102482.88;;;14.59;60.50
69535;BME280;56754;51.568;5.048;2023-04-19T12:05:56;102475.59;;;14.60;61.48
69535;BME280;56754;51.568;5.048;2023-04-19T12:08:30;102468.31;;;14.60;60.45
69535;BME280;56754;51.568;5.048;2023-04-19T12:10:56;102465.34;;;14.62;60.55
69535;BME280;56754;51.568;5.048;2023-04-19T12:13:25;102453.78;;;14.61;60.20
69535;BME280;56754;51.568;5.048;2023-04-19T12:15:51;102451.59;;;14.63;60.10
69535;BME280;56754;51.568;5.048;2023-04-19T12:18:16;102459.38;;;14.65;60.22
69535;BME280;56754;51.568;5.048;2023-04-19T12:20:47;102456.38;;;14.66;59.99
69535;BME280;56754;51.568;5.048;2023-04-19T12:23:13;102451.19;;;14.70;59.75
69535;BME280;56754;51.568;5.048;2023-04-19T12:25:39;102444.91;;;14.74;60.04
69535;BME280;56754;51.568;5.048;2023-04-19T12:28:04;102449.44;;;14.79;59.49
69535;BME280;56754;51.568;5.048;2023-04-19T12:30:30;102447.41;;;14.85;58.73
69535;BME280;56754;51.568;5.048;2023-04-19T12:32:55;102441.94;;;14.90;58.01
69535;BME280;56754;51.568;5.048;2023-04-19T12:35:22;102451.03;;;14.94;56.97
69535;BME280;56754;51.568;5.048;2023-04-19T12:37:48;102441.25;;;14.98;56.91
69535;BME280;56754;51.568;5.048;2023-04-19T12:40:14;102450.03;;;15.04;56.74
69535;BME280;56754;51.568;5.048;2023-04-19T12:42:39;102430.25;;;15.08;55.97
69535;BME280;56754;51.568;5.048;2023-04-19T12:45:05;102429.88;;;15.15;55.35
69535;BME280;56754;51.568;5.048;2023-04-19T12:47:30;102435.44;;;15.18;55.58
69535;BME280;56754;51.568;5.048;2023-04-19T12:49:56;102438.06;;;15.23;55.24
69535;BME280;56754;51.568;5.048;2023-04-19T12:52:21;102430.44;;;15.25;54.45
69535;BME280;56754;51.568;5.048;2023-04-19T12:54:46;102431.75;;;15.28;54.71
69535;BME280;56754;51.568;5.048;2023-04-19T12:57:12;102423.56;;;15.33;54.12